createdAt,value
2018-03-31T00:01:28.424Z,6.60
2018-03-31T00:03:55.020Z,6.60
2018-03-31T00:06:20.916Z,6.50
2018-03-31T00:08:47.500Z,6.60
2018-03-31T00:11:13.380Z,6.50
2018-03-31T00:13:39.277Z,6.50
2018-03-31T00:16:05.197Z,6.50
2018-03-31T00:18:31.056Z,6.40
2018-03-31T00:20:56.995Z,6.30
2018-03-31T00:23:22.847Z,6.50
2018-03-31T00:25:48.704Z,6.50
2018-03-31T00:28:15.337Z,6.60
2018-03-31T00:30:41.192Z,6.60
2018-03-31T00:33:07.816Z,6.50
2018-03-31T00:35:33.696Z,6.50
2018-03-31T00:37:59.576Z,6.50
2018-03-31T00:40:25.474Z,6.60
2018-03-31T00:42:51.352Z,6.60
2018-03-31T00:45:17.260Z,6.60
2018-03-31T00:47:43.121Z,6.60
2018-03-31T00:50:09.002Z,6.70
2018-03-31T00:52:34.896Z,6.70
2018-03-31T00:55:00.795Z,6.70
2018-03-31T00:57:26.685Z,6.70
2018-03-31T00:59:52.544Z,6.70
2018-03-31T01:02:18.392Z,6.80
2018-03-31T01:04:44.284Z,6.90
2018-03-31T01:07:10.128Z,6.90
2018-03-31T01:09:36.015Z,6.90
2018-03-31T01:12:02.642Z,7.00
2018-03-31T01:14:28.544Z,7.00
2018-03-31T01:16:54.397Z,7.10
2018-03-31T01:19:20.244Z,7.10
2018-03-31T01:21:48.145Z,7.20
2018-03-31T01:24:14.009Z,7.20
2018-03-31T01:26:40.649Z,7.20
2018-03-31T01:29:07.281Z,7.20
2018-03-31T01:31:33.165Z,7.20
2018-03-31T01:33:59.026Z,7.20
2018-03-31T01:36:24.906Z,7.20
2018-03-31T01:38:51.589Z,7.30
2018-03-31T01:41:17.459Z,7.30
2018-03-31T01:43:44.101Z,7.30
2018-03-31T01:46:09.980Z,7.30
2018-03-31T01:48:36.608Z,7.40
2018-03-31T01:51:02.550Z,7.40
2018-03-31T01:53:29.174Z,7.50
2018-03-31T01:55:55.099Z,7.50
2018-03-31T01:58:21.015Z,7.60
2018-03-31T02:00:46.909Z,7.50
2018-03-31T02:03:13.517Z,7.50
2018-03-31T02:05:39.422Z,7.50
2018-03-31T02:08:05.296Z,7.50
2018-03-31T02:10:31.162Z,7.40
2018-03-31T02:12:57.833Z,7.50
2018-03-31T02:15:23.686Z,7.40
2018-03-31T02:17:49.599Z,7.40
2018-03-31T02:20:15.460Z,7.50
2018-03-31T02:22:41.368Z,7.50
2018-03-31T02:25:07.234Z,7.50
2018-03-31T02:27:33.177Z,7.50
2018-03-31T02:29:59.068Z,7.60
2018-03-31T02:32:24.937Z,7.70
2018-03-31T02:34:50.881Z,7.60
2018-03-31T02:37:16.710Z,7.70
2018-03-31T02:39:42.608Z,7.70
2018-03-31T02:42:08.465Z,7.70
2018-03-31T02:44:34.349Z,7.80
2018-03-31T02:47:01.005Z,7.70
2018-03-31T02:49:27.653Z,7.80
2018-03-31T02:51:54.274Z,7.70
2018-03-31T02:54:20.160Z,7.70
2018-03-31T02:56:46.042Z,7.60
2018-03-31T02:59:11.897Z,7.60
2018-03-31T03:01:37.797Z,7.70
2018-03-31T03:04:03.691Z,7.60
2018-03-31T03:06:29.589Z,7.60
2018-03-31T03:08:55.461Z,7.50
2018-03-31T03:11:21.321Z,7.50
2018-03-31T03:13:47.216Z,7.40
2018-03-31T03:16:13.817Z,7.30
2018-03-31T03:18:39.702Z,7.30
2018-03-31T03:21:06.349Z,7.20
2018-03-31T03:23:32.969Z,7.20
2018-03-31T03:25:58.816Z,7.20
2018-03-31T03:28:24.721Z,7.20
2018-03-31T03:30:50.586Z,7.20
2018-03-31T03:33:17.228Z,7.20
2018-03-31T03:35:43.099Z,7.20
2018-03-31T03:38:08.977Z,7.10
2018-03-31T03:40:34.832Z,7.20
2018-03-31T03:43:00.750Z,7.10
2018-03-31T03:45:26.616Z,7.10
2018-03-31T03:47:53.241Z,7.00
2018-03-31T03:50:19.104Z,7.00
2018-03-31T03:52:45.745Z,7.00
2018-03-31T03:55:12.362Z,6.90
2018-03-31T03:57:38.217Z,6.90
2018-03-31T04:00:04.119Z,6.90
2018-03-31T04:02:30.032Z,6.90
2018-03-31T04:04:55.874Z,6.80
2018-03-31T04:07:21.757Z,6.80
2018-03-31T04:09:49.133Z,6.80
2018-03-31T04:12:15.744Z,6.90
2018-03-31T04:14:41.638Z,6.80
2018-03-31T04:17:07.492Z,6.80
2018-03-31T04:19:33.378Z,6.70
2018-03-31T04:21:59.269Z,6.80
2018-03-31T04:24:25.178Z,6.70
2018-03-31T04:26:51.806Z,6.70
2018-03-31T04:29:18.438Z,6.70
2018-03-31T04:31:44.322Z,6.70
2018-03-31T04:34:10.217Z,6.70
2018-03-31T04:36:36.074Z,6.70
2018-03-31T04:39:02.035Z,6.70
2018-03-31T04:41:27.908Z,6.70
2018-03-31T04:43:53.814Z,6.70
2018-03-31T04:46:19.677Z,6.70
2018-03-31T04:48:45.581Z,6.70
2018-03-31T04:51:11.465Z,6.80
2018-03-31T04:53:38.070Z,6.70
2018-03-31T04:56:04.025Z,6.70
2018-03-31T04:58:29.899Z,6.70
2018-03-31T05:00:55.769Z,6.70
2018-03-31T05:03:21.698Z,6.70
2018-03-31T05:05:47.573Z,6.70
2018-03-31T05:08:14.222Z,6.70
2018-03-31T05:10:40.095Z,6.70
2018-03-31T05:13:06.004Z,6.70
2018-03-31T05:15:32.654Z,6.60
2018-03-31T05:17:59.290Z,6.70
2018-03-31T05:20:25.268Z,6.60
2018-03-31T05:22:51.173Z,6.60
2018-03-31T05:25:17.794Z,6.80
2018-03-31T05:27:43.691Z,6.70
2018-03-31T05:30:09.609Z,6.80
2018-03-31T05:32:36.217Z,6.80
2018-03-31T05:35:02.134Z,6.80
2018-03-31T05:37:27.996Z,6.90
2018-03-31T05:39:54.722Z,6.90
2018-03-31T05:42:20.573Z,6.90
2018-03-31T05:44:46.497Z,7.00
2018-03-31T05:47:12.394Z,7.10
2018-03-31T05:49:38.273Z,7.20
2018-03-31T05:52:04.198Z,7.20
2018-03-31T05:54:30.079Z,7.20
2018-03-31T05:56:56.709Z,7.30
2018-03-31T05:59:22.602Z,7.30
2018-03-31T06:01:48.519Z,7.30
2018-03-31T06:04:14.421Z,7.30
2018-03-31T06:06:41.012Z,7.30
2018-03-31T06:09:06.884Z,7.30
2018-03-31T06:11:32.812Z,7.30
2018-03-31T06:13:58.685Z,7.30
2018-03-31T06:16:24.559Z,7.30
2018-03-31T06:18:50.459Z,7.30
2018-03-31T06:21:16.374Z,7.40
2018-03-31T06:23:43.016Z,7.50
2018-03-31T06:26:08.871Z,7.50
2018-03-31T06:28:34.759Z,7.60
2018-03-31T06:31:00.637Z,7.60
2018-03-31T06:33:26.525Z,7.60
2018-03-31T06:35:52.486Z,7.60
2018-03-31T06:38:18.355Z,7.60
2018-03-31T06:40:44.218Z,7.70
2018-03-31T06:43:10.214Z,7.80
2018-03-31T06:45:37.115Z,7.70
2018-03-31T06:48:03.199Z,7.80
2018-03-31T06:50:29.837Z,7.70
2018-03-31T06:52:55.706Z,7.70
2018-03-31T06:55:21.606Z,7.80
2018-03-31T06:57:48.242Z,7.90
2018-03-31T07:00:14.130Z,7.90
2018-03-31T07:02:40.038Z,7.90
2018-03-31T07:05:06.706Z,8.10
2018-03-31T07:07:32.603Z,8.10
2018-03-31T07:09:58.504Z,8.20
2018-03-31T07:12:24.361Z,8.30
2018-03-31T07:14:50.279Z,8.50
2018-03-31T07:17:16.133Z,8.60
2018-03-31T07:19:41.998Z,8.60
2018-03-31T07:22:08.661Z,8.70
2018-03-31T07:24:34.602Z,8.70
2018-03-31T07:27:00.461Z,8.80
2018-03-31T07:29:26.324Z,8.80
2018-03-31T07:31:52.210Z,9.00
2018-03-31T07:34:18.060Z,8.90
2018-03-31T07:36:43.954Z,8.90
2018-03-31T07:39:09.817Z,8.90
2018-03-31T07:41:35.790Z,8.90
2018-03-31T07:44:01.647Z,8.90
2018-03-31T07:46:28.304Z,8.80
2018-03-31T07:48:54.178Z,8.80
2018-03-31T07:51:20.046Z,8.90
2018-03-31T07:53:46.694Z,8.80
2018-03-31T07:56:12.554Z,8.80
2018-03-31T07:58:38.474Z,8.90
2018-03-31T08:01:05.096Z,9.10
2018-03-31T08:03:31.072Z,9.00
2018-03-31T08:05:56.986Z,9.10
2018-03-31T08:08:23.593Z,9.00
2018-03-31T08:10:49.490Z,9.00
2018-03-31T08:13:16.123Z,9.10
2018-03-31T08:15:42.826Z,9.20
2018-03-31T08:18:08.758Z,9.20
2018-03-31T08:20:34.657Z,9.10
2018-03-31T08:23:01.266Z,9.30
2018-03-31T08:25:27.162Z,9.30
2018-03-31T08:27:53.013Z,9.40
2018-03-31T08:30:18.932Z,9.50
2018-03-31T08:32:44.761Z,9.70
2018-03-31T08:35:10.653Z,9.90
2018-03-31T08:37:36.586Z,10.00
2018-03-31T08:40:02.482Z,10.10
2018-03-31T08:42:28.405Z,10.10
2018-03-31T08:44:54.357Z,9.90
2018-03-31T08:47:20.269Z,10.00
2018-03-31T08:49:46.132Z,10.10
2018-03-31T08:52:12.004Z,10.40
2018-03-31T08:54:38.657Z,10.00
2018-03-31T08:57:05.343Z,9.70
2018-03-31T08:59:31.232Z,9.70
2018-03-31T09:01:57.122Z,9.80
2018-03-31T09:04:23.012Z,9.80
2018-03-31T09:06:49.649Z,10.30
2018-03-31T09:09:16.265Z,10.70
2018-03-31T09:11:42.130Z,10.60
2018-03-31T09:14:08.028Z,10.70
2018-03-31T09:16:33.966Z,11.00
2018-03-31T09:18:59.832Z,11.10
2018-03-31T09:21:25.745Z,10.90
2018-03-31T09:23:51.605Z,10.70
2018-03-31T09:26:17.509Z,10.80
2018-03-31T09:28:43.415Z,10.90
2018-03-31T09:31:09.322Z,10.90
2018-03-31T09:33:35.945Z,10.50
2018-03-31T09:36:01.850Z,10.40
2018-03-31T09:38:27.749Z,10.40
2018-03-31T09:40:54.358Z,10.90
2018-03-31T09:43:20.234Z,10.90
2018-03-31T09:45:46.882Z,10.90
2018-03-31T09:48:13.482Z,10.80
2018-03-31T09:50:39.370Z,10.70
2018-03-31T09:53:05.980Z,10.60
2018-03-31T09:55:31.877Z,10.60
2018-03-31T09:57:57.732Z,10.60
2018-03-31T10:00:29.696Z,10.70
2018-03-31T10:02:55.602Z,10.80
2018-03-31T10:05:21.518Z,10.70
2018-03-31T10:07:48.162Z,10.80
2018-03-31T10:10:14.030Z,10.80
2018-03-31T10:12:39.922Z,10.70
2018-03-31T10:15:05.798Z,10.60
2018-03-31T10:17:31.840Z,10.60
2018-03-31T10:19:57.705Z,10.90
2018-03-31T10:22:23.564Z,10.80
2018-03-31T10:24:49.460Z,10.90
2018-03-31T10:27:15.361Z,10.90
2018-03-31T10:29:41.214Z,10.60
2018-03-31T10:32:07.168Z,10.70
2018-03-31T10:34:33.069Z,10.80
2018-03-31T10:36:58.943Z,11.00
2018-03-31T10:39:24.801Z,11.00
2018-03-31T10:41:50.693Z,10.90
2018-03-31T10:44:16.562Z,11.10
2018-03-31T10:46:42.463Z,11.20
2018-03-31T10:49:08.376Z,11.10
2018-03-31T10:51:34.330Z,11.30
2018-03-31T10:54:00.196Z,11.30
2018-03-31T10:56:26.058Z,11.10
2018-03-31T10:58:52.722Z,11.20
2018-03-31T11:01:18.590Z,11.20
2018-03-31T11:03:44.486Z,11.10
2018-03-31T11:06:10.357Z,11.20
2018-03-31T11:08:36.221Z,11.30
2018-03-31T11:11:02.146Z,11.20
2018-03-31T11:13:28.035Z,11.10
2018-03-31T11:15:53.897Z,10.90
2018-03-31T11:18:19.814Z,10.50
2018-03-31T11:20:45.689Z,10.40
2018-03-31T11:23:11.581Z,10.30
2018-03-31T11:25:37.503Z,10.20
2018-03-31T11:28:03.356Z,10.00
2018-03-31T11:30:29.273Z,9.90
2018-03-31T11:32:55.185Z,9.90
2018-03-31T11:35:21.839Z,9.90
2018-03-31T11:37:48.827Z,9.90
2018-03-31T11:40:14.678Z,9.80
2018-03-31T11:42:40.582Z,9.70
2018-03-31T11:45:06.445Z,9.80
2018-03-31T11:47:32.315Z,9.70
2018-03-31T11:49:59.034Z,9.70
2018-03-31T11:52:24.934Z,9.70
2018-03-31T11:54:50.818Z,9.60
2018-03-31T11:57:16.725Z,9.60
2018-03-31T11:59:42.613Z,9.50
2018-03-31T12:02:09.249Z,9.60
2018-03-31T12:04:35.145Z,9.60
2018-03-31T12:07:01.014Z,9.70
2018-03-31T12:09:26.955Z,9.50
2018-03-31T12:11:52.833Z,9.30
2018-03-31T12:14:18.717Z,9.40
2018-03-31T12:16:44.609Z,9.50
2018-03-31T12:19:10.472Z,9.40
2018-03-31T12:21:36.438Z,9.20
2018-03-31T12:24:03.065Z,9.40
2018-03-31T12:26:28.962Z,9.40
2018-03-31T12:28:54.869Z,9.60
2018-03-31T12:31:20.738Z,9.30
2018-03-31T12:33:46.595Z,9.10
2018-03-31T12:36:12.608Z,9.10
2018-03-31T12:38:38.502Z,9.10
2018-03-31T12:41:04.394Z,9.10
2018-03-31T12:43:30.285Z,9.00
2018-03-31T12:45:56.177Z,9.00
2018-03-31T12:48:23.509Z,8.80
2018-03-31T12:50:49.402Z,8.80
2018-03-31T12:53:15.998Z,8.90
2018-03-31T12:55:41.890Z,8.90
2018-03-31T12:58:08.506Z,9.20
2018-03-31T13:00:34.427Z,9.20
2018-03-31T13:03:00.326Z,8.80
2018-03-31T13:05:26.226Z,8.80
2018-03-31T13:07:52.833Z,8.90
2018-03-31T13:10:18.738Z,8.90
2018-03-31T13:12:44.633Z,8.70
2018-03-31T13:15:10.545Z,8.70
2018-03-31T13:17:36.490Z,8.60
2018-03-31T13:20:02.380Z,8.40
2018-03-31T13:22:28.277Z,8.40
2018-03-31T13:24:54.192Z,8.20
2018-03-31T13:27:20.057Z,8.20
2018-03-31T13:29:46.758Z,8.20
2018-03-31T13:32:12.661Z,8.20
2018-03-31T13:34:38.520Z,8.20
2018-03-31T13:37:04.429Z,8.30
2018-03-31T13:39:30.332Z,8.10
2018-03-31T13:41:56.228Z,8.00
2018-03-31T13:44:22.173Z,7.90
2018-03-31T13:46:48.029Z,8.00
2018-03-31T13:49:13.922Z,8.00
2018-03-31T13:51:39.830Z,8.10
2018-03-31T13:54:05.723Z,8.00
2018-03-31T13:56:31.609Z,8.20
2018-03-31T13:58:57.503Z,8.10
2018-03-31T14:01:24.125Z,8.30
2018-03-31T14:03:50.022Z,8.30
2018-03-31T14:06:15.941Z,8.30
2018-03-31T14:08:42.550Z,8.20
2018-03-31T14:11:08.472Z,8.20
2018-03-31T14:13:34.371Z,8.20
2018-03-31T14:16:00.347Z,8.30
2018-03-31T14:18:26.225Z,8.30
2018-03-31T14:20:52.880Z,8.30
2018-03-31T14:23:19.670Z,8.40
2018-03-31T14:25:45.584Z,8.40
2018-03-31T14:28:11.478Z,8.30
2018-03-31T14:30:38.171Z,8.50
2018-03-31T14:33:04.121Z,8.50
2018-03-31T14:35:30.021Z,8.40
2018-03-31T14:37:56.662Z,8.50
2018-03-31T14:40:22.524Z,8.50
2018-03-31T14:42:48.864Z,8.40
2018-03-31T14:45:14.950Z,8.40
2018-03-31T14:47:40.870Z,8.40
2018-03-31T14:50:06.733Z,7.90
2018-03-31T14:52:33.439Z,8.00
2018-03-31T14:54:59.348Z,8.00
2018-03-31T14:57:25.948Z,7.80
2018-03-31T14:59:51.848Z,7.80
2018-03-31T15:02:18.087Z,7.70
2018-03-31T15:04:44.055Z,7.70
2018-03-31T15:07:09.987Z,7.70
2018-03-31T15:09:35.868Z,7.80
2018-03-31T15:12:02.565Z,8.00
2018-03-31T15:14:28.470Z,8.00
2018-03-31T15:16:55.163Z,8.00
2018-03-31T15:19:21.035Z,8.00
2018-03-31T15:21:47.035Z,8.10
2018-03-31T15:24:12.922Z,8.10
2018-03-31T15:26:39.558Z,7.80
2018-03-31T15:29:05.438Z,7.80
2018-03-31T15:31:31.324Z,7.80
2018-03-31T15:33:58.129Z,7.80
2018-03-31T15:36:24.009Z,7.70
2018-03-31T15:38:49.895Z,7.50
2018-03-31T15:41:15.753Z,7.60
2018-03-31T15:43:41.629Z,7.40
2018-03-31T15:46:08.308Z,7.30
2018-03-31T15:48:34.245Z,7.30
2018-03-31T15:51:00.175Z,7.30
2018-03-31T15:53:26.099Z,7.30
2018-03-31T15:55:52.424Z,7.40
2018-03-31T15:58:19.065Z,7.40
2018-03-31T16:00:44.968Z,7.40
2018-03-31T16:03:10.834Z,7.20
2018-03-31T16:05:36.813Z,7.20
2018-03-31T16:08:02.764Z,7.20
2018-03-31T16:10:28.686Z,7.20
2018-03-31T16:12:54.625Z,7.20
2018-03-31T16:15:20.507Z,7.20
2018-03-31T16:17:46.494Z,7.20
2018-03-31T16:20:12.392Z,7.00
2018-03-31T16:22:39.090Z,6.90
2018-03-31T16:25:04.980Z,6.90
2018-03-31T16:27:31.581Z,6.90
2018-03-31T16:29:57.499Z,6.90
2018-03-31T16:32:23.433Z,6.80
2018-03-31T16:34:49.289Z,6.80
2018-03-31T16:37:15.179Z,6.70
2018-03-31T16:39:41.056Z,6.70
2018-03-31T16:42:06.979Z,6.70
2018-03-31T16:44:32.902Z,6.70
2018-03-31T16:46:58.817Z,6.70
2018-03-31T16:49:24.776Z,6.60
2018-03-31T16:51:50.979Z,6.70
2018-03-31T16:54:16.891Z,6.80
2018-03-31T16:56:42.785Z,6.70
2018-03-31T16:59:08.657Z,6.60
2018-03-31T17:01:34.571Z,6.70
2018-03-31T17:04:00.479Z,6.60
2018-03-31T17:06:26.325Z,6.50
2018-03-31T17:08:52.194Z,6.40
2018-03-31T17:11:18.058Z,6.50
2018-03-31T17:13:44.723Z,6.50
2018-03-31T17:16:10.626Z,6.50
2018-03-31T17:18:36.510Z,6.60
2018-03-31T17:21:02.382Z,6.60
2018-03-31T17:23:29.021Z,6.80
2018-03-31T17:25:54.890Z,6.70
2018-03-31T17:28:21.527Z,6.50
2018-03-31T17:30:47.409Z,6.50
2018-03-31T17:33:13.301Z,6.40
2018-03-31T17:35:39.895Z,6.40
2018-03-31T17:38:05.803Z,6.40
2018-03-31T17:40:31.665Z,6.30
2018-03-31T17:42:57.590Z,6.30
2018-03-31T17:45:23.501Z,6.40
2018-03-31T17:47:50.136Z,6.20
2018-03-31T17:50:16.043Z,6.20
2018-03-31T17:52:41.888Z,6.20
2018-03-31T17:55:07.764Z,6.10
2018-03-31T17:57:33.731Z,6.10
2018-03-31T17:59:59.637Z,6.00
2018-03-31T18:02:25.532Z,6.00
2018-03-31T18:04:51.394Z,6.00
2018-03-31T18:07:18.130Z,6.00
2018-03-31T18:09:44.762Z,6.00
2018-03-31T18:12:10.617Z,6.00
2018-03-31T18:14:37.270Z,6.00
2018-03-31T18:17:03.899Z,6.10
2018-03-31T18:19:29.794Z,6.10
2018-03-31T18:21:55.693Z,6.10
2018-03-31T18:24:22.290Z,6.00
2018-03-31T18:26:48.194Z,6.10
2018-03-31T18:29:14.060Z,6.00
2018-03-31T18:31:39.926Z,6.00
2018-03-31T18:34:12.890Z,6.00
2018-03-31T18:36:38.774Z,5.90
2018-03-31T18:39:05.634Z,5.90
2018-03-31T18:41:32.248Z,5.70
2018-03-31T18:43:58.141Z,5.70
2018-03-31T18:46:24.005Z,5.90
2018-03-31T18:48:49.862Z,6.00
2018-03-31T18:51:15.761Z,5.90
2018-03-31T18:53:41.661Z,5.90
2018-03-31T18:56:08.386Z,5.90
2018-03-31T18:58:34.530Z,5.90
2018-03-31T19:01:00.470Z,5.70
2018-03-31T19:03:27.086Z,5.60
2018-03-31T19:05:52.945Z,5.60
2018-03-31T19:08:18.863Z,5.50
2018-03-31T19:10:44.759Z,5.50
2018-03-31T19:13:10.641Z,5.60
2018-03-31T19:15:36.520Z,5.50
2018-03-31T19:18:02.428Z,5.30
2018-03-31T19:20:29.043Z,5.20
2018-03-31T19:22:54.939Z,5.10
2018-03-31T19:25:26.984Z,5.10
2018-03-31T19:27:52.882Z,5.10
2018-03-31T19:30:18.744Z,5.10
2018-03-31T19:32:44.636Z,5.00
2018-03-31T19:35:10.499Z,5.10
2018-03-31T19:37:36.402Z,5.10
2018-03-31T19:40:02.262Z,5.00
2018-03-31T19:42:28.207Z,5.00
2018-03-31T19:44:54.066Z,4.90
2018-03-31T19:47:20.656Z,4.80
2018-03-31T19:49:46.538Z,4.80
2018-03-31T19:52:12.400Z,4.60
2018-03-31T19:54:38.332Z,4.60
2018-03-31T19:57:04.204Z,4.70
2018-03-31T19:59:30.088Z,4.80
2018-03-31T20:01:56.731Z,4.70
2018-03-31T20:04:23.373Z,4.50
2018-03-31T20:06:49.257Z,4.50
2018-03-31T20:09:15.158Z,4.20
2018-03-31T20:11:41.798Z,4.20
2018-03-31T20:14:07.706Z,4.20
2018-03-31T20:16:33.574Z,4.20
2018-03-31T20:19:00.207Z,4.30
2018-03-31T20:21:26.864Z,4.20
2018-03-31T20:23:52.754Z,4.20
2018-03-31T20:26:18.637Z,4.10
2018-03-31T20:28:45.246Z,4.10
2018-03-31T20:31:11.150Z,4.10
2018-03-31T20:33:37.026Z,4.00
2018-03-31T20:36:02.887Z,4.00
2018-03-31T20:38:28.774Z,3.80
2018-03-31T20:40:54.662Z,3.80
2018-03-31T20:43:21.294Z,3.80
2018-03-31T20:45:47.177Z,3.70
2018-03-31T20:48:13.032Z,3.80
2018-03-31T20:50:38.956Z,3.70
2018-03-31T20:53:05.344Z,3.80
2018-03-31T20:55:31.173Z,3.80
2018-03-31T20:57:57.057Z,3.80
2018-03-31T21:00:22.966Z,3.60
2018-03-31T21:02:49.574Z,3.50
2018-03-31T21:05:15.428Z,3.50
2018-03-31T21:07:41.322Z,3.50
2018-03-31T21:10:07.278Z,3.60
2018-03-31T21:12:33.174Z,3.50
2018-03-31T21:14:59.029Z,3.60
2018-03-31T21:17:24.934Z,3.50
2018-03-31T21:19:50.793Z,3.60
2018-03-31T21:22:16.653Z,3.60
2018-03-31T21:24:42.563Z,3.60
2018-03-31T21:27:08.455Z,3.60
2018-03-31T21:29:35.072Z,3.60
2018-03-31T21:32:00.965Z,3.60
2018-03-31T21:34:26.825Z,3.60
2018-03-31T21:36:52.718Z,3.50
2018-03-31T21:39:18.588Z,3.50
2018-03-31T21:41:44.497Z,3.50
2018-03-31T21:44:10.381Z,3.50
2018-03-31T21:46:36.307Z,3.40
2018-03-31T21:49:02.160Z,3.50
2018-03-31T21:51:28.049Z,3.50
2018-03-31T21:53:53.973Z,3.50
2018-03-31T21:56:19.825Z,3.50
2018-03-31T21:58:45.691Z,3.50
2018-03-31T22:01:11.578Z,3.60
2018-03-31T22:03:37.520Z,3.60
2018-03-31T22:06:03.389Z,3.60
2018-03-31T22:08:29.298Z,3.60
2018-03-31T22:10:55.164Z,3.40
2018-03-31T22:13:27.176Z,3.30
2018-03-31T22:15:53.037Z,3.30
2018-03-31T22:18:19.153Z,3.30
2018-03-31T22:20:45.055Z,3.20
2018-03-31T22:23:11.662Z,3.10
2018-03-31T22:25:37.586Z,3.10
2018-03-31T22:28:03.457Z,3.10
2018-03-31T22:30:29.389Z,3.20
2018-03-31T22:32:55.249Z,3.10
2018-03-31T22:35:21.884Z,3.20
2018-03-31T22:37:47.742Z,3.10
2018-03-31T22:40:14.366Z,3.10
2018-03-31T22:42:40.220Z,3.10
2018-03-31T22:45:06.900Z,3.10
2018-03-31T22:47:32.756Z,3.10
2018-03-31T22:49:58.617Z,3.10
2018-03-31T22:52:24.521Z,3.10
2018-03-31T22:54:50.404Z,3.10
2018-03-31T22:57:17.009Z,3.10
2018-03-31T22:59:42.889Z,3.10
2018-03-31T23:02:09.518Z,3.30
2018-03-31T23:04:35.465Z,3.20
2018-03-31T23:07:01.306Z,3.20
2018-03-31T23:09:27.958Z,3.20
2018-03-31T23:11:54.557Z,3.10
2018-03-31T23:14:20.417Z,3.10
2018-03-31T23:16:46.309Z,3.00
2018-03-31T23:19:12.173Z,3.00
2018-03-31T23:21:38.081Z,3.00
2018-03-31T23:24:03.933Z,3.10
2018-03-31T23:26:29.830Z,3.20
2018-03-31T23:28:55.733Z,3.10
2018-03-31T23:31:22.341Z,3.20
2018-03-31T23:33:48.233Z,3.20
2018-03-31T23:36:14.828Z,2.90
2018-03-31T23:38:40.749Z,3.00
2018-03-31T23:41:06.616Z,2.90
2018-03-31T23:43:32.550Z,2.90
2018-03-31T23:45:58.461Z,2.80
2018-03-31T23:48:24.366Z,2.70
2018-03-31T23:50:50.217Z,2.80
2018-03-31T23:53:16.070Z,2.80
2018-03-31T23:55:41.994Z,2.70
2018-03-31T23:58:07.889Z,2.80
